createdAt,value
2018-06-04T00:00:14.754Z,100110.83
2018-06-04T00:02:43.679Z,100103.92
2018-06-04T00:05:12.654Z,100109.65
2018-06-04T00:07:41.600Z,100105.14
2018-06-04T00:10:10.582Z,100100.25
2018-06-04T00:12:39.536Z,100098.11
2018-06-04T00:15:08.482Z,100100.38
2018-06-04T00:17:37.411Z,100101.08
2018-06-04T00:20:06.492Z,100096.80
2018-06-04T00:22:35.422Z,100098.41
2018-06-04T00:25:04.411Z,100094.14
2018-06-04T00:27:33.362Z,100092.23
2018-06-04T00:30:02.262Z,100085.15
2018-06-04T00:32:31.216Z,100083.58
2018-06-04T00:35:00.153Z,100078.67
2018-06-04T00:37:29.130Z,100079.94
2018-06-04T00:39:58.072Z,100073.47
2018-06-04T00:42:27.030Z,100070.98
2018-06-04T00:44:55.951Z,100071.50
2018-06-04T00:47:24.927Z,100070.45
2018-06-04T00:49:54.005Z,100072.27
2018-06-04T00:52:22.954Z,100073.28
2018-06-04T00:54:51.855Z,100070.08
2018-06-04T00:57:20.821Z,100064.23
2018-06-04T00:59:50.603Z,100060.19
2018-06-04T01:02:19.558Z,100068.75
2018-06-04T01:04:48.465Z,100066.97
2018-06-04T01:07:17.402Z,100059.45
2018-06-04T01:09:46.315Z,100056.73
2018-06-04T01:12:15.270Z,100057.20
2018-06-04T01:14:44.195Z,100054.25
2018-06-04T01:17:13.150Z,100054.06
2018-06-04T01:19:42.087Z,100049.58
2018-06-04T01:22:11.110Z,100053.85
2018-06-04T01:24:39.993Z,100048.62
2018-06-04T01:27:08.922Z,100046.56
2018-06-04T01:29:37.854Z,100040.92
2018-06-04T01:32:06.819Z,100044.06
2018-06-04T01:34:35.767Z,100036.34
2018-06-04T01:37:04.772Z,100037.92
2018-06-04T01:39:33.703Z,100036.45
2018-06-04T01:42:02.680Z,100032.92
2018-06-04T01:44:31.628Z,100030.30
2018-06-04T01:47:00.604Z,100033.43
2018-06-04T01:49:29.539Z,100031.44
2018-06-04T01:51:58.531Z,100037.28
2018-06-04T01:54:27.660Z,100038.30
2018-06-04T01:56:56.639Z,100032.09
2018-06-04T01:59:25.587Z,100026.45
2018-06-04T02:01:54.681Z,100026.95
2018-06-04T02:04:23.643Z,100024.26
2018-06-04T02:06:52.625Z,100026.75
2018-06-04T02:09:21.555Z,100018.31
2018-06-04T02:11:50.569Z,100022.09
2018-06-04T02:14:19.524Z,100016.75
2018-06-04T02:16:48.514Z,100013.66
2018-06-04T02:19:17.454Z,100012.91
2018-06-04T02:21:46.446Z,100009.07
2018-06-04T02:24:15.384Z,100012.59
2018-06-04T02:26:44.346Z,100012.40
2018-06-04T02:29:13.359Z,100011.14
2018-06-04T02:31:42.385Z,100001.77
2018-06-04T02:34:11.356Z,100001.55
2018-06-04T02:36:40.343Z,100012.51
2018-06-04T02:39:09.291Z,100010.48
2018-06-04T02:41:38.292Z,99999.36
2018-06-04T02:44:07.244Z,99995.92
2018-06-04T02:46:36.235Z,100003.86
2018-06-04T02:49:05.205Z,100012.20
2018-06-04T02:51:34.235Z,100008.53
2018-06-04T02:54:03.173Z,99998.95
2018-06-04T02:56:32.219Z,100004.89
2018-06-04T02:59:01.163Z,100007.98
2018-06-04T03:01:30.143Z,99998.84
2018-06-04T03:03:59.123Z,99992.56
2018-06-04T03:06:28.172Z,99992.58
2018-06-04T03:08:57.140Z,99991.95
2018-06-04T03:11:26.140Z,99990.58
2018-06-04T03:13:55.091Z,99987.04
2018-06-04T03:16:24.110Z,99997.78
2018-06-04T03:18:53.042Z,99990.00
2018-06-04T03:21:22.031Z,99994.23
2018-06-04T03:23:50.992Z,99992.28
2018-06-04T03:26:19.954Z,99988.78
2018-06-04T03:28:48.978Z,99991.63
2018-06-04T03:31:17.923Z,99995.16
2018-06-04T03:33:47.064Z,99993.80
2018-06-04T03:36:15.994Z,99990.10
2018-06-04T03:38:44.984Z,99991.73
2018-06-04T03:41:13.913Z,99994.37
2018-06-04T03:43:42.900Z,99986.63
2018-06-04T03:46:11.938Z,99990.00
2018-06-04T03:48:40.887Z,99991.04
2018-06-04T03:51:09.850Z,99991.00
2018-06-04T03:53:38.859Z,99990.69
2018-06-04T03:56:07.826Z,99985.38
2018-06-04T03:58:36.790Z,99979.91
2018-06-04T04:01:05.779Z,99985.80
2018-06-04T04:03:34.770Z,99986.15
2018-06-04T04:06:03.714Z,99991.11
2018-06-04T04:08:32.773Z,99985.19
2018-06-04T04:11:01.718Z,99987.06
2018-06-04T04:13:30.685Z,99993.74
2018-06-04T04:15:59.634Z,99991.97
2018-06-04T04:18:28.611Z,99987.30
2018-06-04T04:20:57.585Z,99986.03
2018-06-04T04:23:26.558Z,99981.44
2018-06-04T04:25:55.495Z,99988.23
2018-06-04T04:28:24.535Z,99992.70
2018-06-04T04:30:53.583Z,99988.85
2018-06-04T04:33:22.558Z,99988.42
2018-06-04T04:35:51.502Z,99991.86
2018-06-04T04:38:20.520Z,99994.43
2018-06-04T04:40:49.466Z,99995.94
2018-06-04T04:43:18.478Z,99996.55
2018-06-04T04:45:47.438Z,99997.84
2018-06-04T04:48:16.421Z,99995.03
2018-06-04T04:50:45.362Z,100003.45
2018-06-04T04:53:14.374Z,100004.44
2018-06-04T04:55:43.324Z,100006.09
2018-06-04T04:58:12.398Z,100003.58
2018-06-04T05:00:41.371Z,100000.42
2018-06-04T05:03:10.441Z,100005.34
2018-06-04T05:05:39.427Z,100004.72
2018-06-04T05:08:08.424Z,100006.91
2018-06-04T05:10:37.431Z,100006.30
2018-06-04T05:13:06.433Z,100012.05
2018-06-04T05:15:35.384Z,100011.44
2018-06-04T05:18:04.377Z,100011.41
2018-06-04T05:20:33.329Z,100008.74
2018-06-04T05:23:02.323Z,100002.45
2018-06-04T05:25:31.262Z,99996.64
2018-06-04T05:28:00.263Z,99998.08
2018-06-04T05:30:29.245Z,100007.97
2018-06-04T05:32:58.244Z,100001.93
2018-06-04T05:35:27.206Z,100001.38
2018-06-04T05:37:56.224Z,100002.13
2018-06-04T05:40:25.176Z,100016.28
2018-06-04T05:42:54.173Z,100012.39
2018-06-04T05:45:23.124Z,100009.31
2018-06-04T05:47:52.278Z,100012.69
2018-06-04T05:50:21.254Z,100007.42
2018-06-04T05:52:50.275Z,100012.34
2018-06-04T05:55:19.225Z,100003.22
2018-06-04T05:57:48.232Z,100006.00
2018-06-04T06:00:17.202Z,100013.50
2018-06-04T06:02:46.335Z,100002.27
2018-06-04T06:05:15.274Z,99994.39
2018-06-04T06:07:44.289Z,99994.05
2018-06-04T06:10:13.275Z,99989.91
2018-06-04T06:12:42.235Z,99988.69
2018-06-04T06:15:11.241Z,99983.53
2018-06-04T06:17:40.383Z,99983.67
2018-06-04T06:20:09.391Z,99981.59
2018-06-04T06:22:38.385Z,99982.02
2018-06-04T06:25:07.420Z,99983.39
2018-06-04T06:27:37.058Z,99981.73
2018-06-04T06:30:06.136Z,99970.92
2018-06-04T06:32:35.087Z,99978.13
2018-06-04T06:35:04.061Z,99978.41
2018-06-04T06:37:33.086Z,99977.49
2018-06-04T06:40:02.059Z,99972.94
2018-06-04T06:42:31.025Z,99979.69
2018-06-04T06:45:00.015Z,99976.95
2018-06-04T06:47:28.919Z,99975.50
2018-06-04T06:49:57.986Z,99975.08
2018-06-04T06:52:26.949Z,99973.17
2018-06-04T06:54:56.487Z,99973.33
2018-06-04T06:57:25.430Z,99973.64
2018-06-04T06:59:54.622Z,99980.20
2018-06-04T07:02:23.557Z,99979.05
2018-06-04T07:04:52.606Z,99970.94
2018-06-04T07:07:21.555Z,99982.29
2018-06-04T07:09:50.525Z,99976.31
2018-06-04T07:12:19.488Z,99972.05
2018-06-04T07:14:48.480Z,99968.34
2018-06-04T07:17:17.440Z,99972.91
2018-06-04T07:19:46.413Z,99976.50
2018-06-04T07:22:15.358Z,99974.62
2018-06-04T07:24:44.314Z,99972.16
2018-06-04T07:27:13.256Z,99968.67
2018-06-04T07:29:42.307Z,99965.22
2018-06-04T07:32:11.335Z,99957.55
2018-06-04T07:34:40.324Z,99951.94
2018-06-04T07:37:09.268Z,99953.78
2018-06-04T07:39:38.277Z,99954.61
2018-06-04T07:42:07.245Z,99956.17
2018-06-04T07:44:36.277Z,99958.11
2018-06-04T07:47:05.217Z,99950.62
2018-06-04T07:49:34.241Z,99948.48
2018-06-04T07:52:03.220Z,99945.72
2018-06-04T07:54:32.226Z,99946.18
2018-06-04T07:57:01.176Z,99945.14
2018-06-04T07:59:30.207Z,99940.95
2018-06-04T08:01:59.187Z,99944.32
2018-06-04T08:04:28.274Z,99947.59
2018-06-04T08:06:57.187Z,99939.07
2018-06-04T08:09:26.198Z,99937.11
2018-06-04T08:11:55.635Z,99929.77
2018-06-04T08:14:28.812Z,99937.29
2018-06-04T08:16:58.416Z,99934.97
2018-06-04T08:19:27.438Z,99931.36
2018-06-04T08:21:56.563Z,99929.14
2018-06-04T08:24:25.615Z,99924.75
2018-06-04T08:26:54.967Z,99929.86
2018-06-04T08:29:24.017Z,99927.14
2018-06-04T08:31:53.651Z,99918.74
2018-06-04T08:34:23.221Z,99918.34
2018-06-04T08:36:52.940Z,99919.60
2018-06-04T08:39:22.418Z,99922.68
2018-06-04T08:41:51.902Z,99925.95
2018-06-04T08:44:20.960Z,99923.14
2018-06-04T08:46:49.944Z,99920.55
2018-06-04T08:49:18.939Z,99920.66
2018-06-04T08:51:47.927Z,99914.70
2018-06-04T08:54:16.909Z,99911.89
2018-06-04T08:56:45.861Z,99909.69
2018-06-04T08:59:14.849Z,99907.64
2018-06-04T09:01:43.805Z,99912.70
2018-06-04T09:04:12.791Z,99909.55
2018-06-04T09:06:41.772Z,99906.69
2018-06-04T09:09:11.087Z,99903.91
2018-06-04T09:11:40.098Z,99904.87
2018-06-04T09:14:09.098Z,99911.70
2018-06-04T09:16:38.066Z,99913.31
2018-06-04T09:19:07.079Z,99913.08
2018-06-04T09:21:36.060Z,99911.72
2018-06-04T09:24:05.160Z,99911.94
2018-06-04T09:26:34.169Z,99915.27
2018-06-04T09:29:03.157Z,99917.45
2018-06-04T09:31:32.179Z,99916.89
2018-06-04T09:34:01.142Z,99907.31
2018-06-04T09:36:30.127Z,99905.14
2018-06-04T09:38:59.106Z,99903.52
2018-06-04T09:41:28.158Z,99913.59
2018-06-04T09:43:57.134Z,99905.72
2018-06-04T09:46:26.138Z,99909.47
2018-06-04T09:48:55.186Z,99905.32
2018-06-04T09:51:24.182Z,99904.58
2018-06-04T09:53:53.188Z,99911.99
2018-06-04T09:56:22.159Z,99909.52
2018-06-04T09:58:51.138Z,99905.39
2018-06-04T10:01:20.109Z,99904.55
2018-06-04T10:03:49.035Z,99897.69
2018-06-04T10:06:18.027Z,99896.88
2018-06-04T10:08:46.978Z,99902.84
2018-06-04T10:11:16.050Z,99902.91
2018-06-04T10:13:44.975Z,99898.81
2018-06-04T10:16:13.987Z,99900.89
2018-06-04T10:18:43.457Z,99897.96
2018-06-04T10:21:12.595Z,99897.92
2018-06-04T10:23:41.592Z,99894.13
2018-06-04T10:26:10.586Z,99898.48
2018-06-04T10:28:40.386Z,99895.77
2018-06-04T10:31:09.358Z,99896.61
2018-06-04T10:33:38.312Z,99896.33
2018-06-04T10:36:07.374Z,99902.70
2018-06-04T10:38:36.322Z,99895.50
2018-06-04T10:41:05.441Z,99891.12
2018-06-04T10:43:34.437Z,99888.88
2018-06-04T10:46:03.417Z,99888.88
2018-06-04T10:48:32.351Z,99887.18
2018-06-04T10:51:01.629Z,99880.63
2018-06-04T10:53:30.557Z,99886.97
2018-06-04T10:55:59.543Z,99885.52
2018-06-04T10:58:28.487Z,99885.80
2018-06-04T11:00:57.503Z,99888.31
2018-06-04T11:03:26.447Z,99878.83
2018-06-04T11:05:55.430Z,99877.29
2018-06-04T11:08:24.370Z,99876.95
2018-06-04T11:10:53.362Z,99866.59
2018-06-04T11:13:22.342Z,99873.08
2018-06-04T11:15:51.331Z,99872.49
2018-06-04T11:18:20.262Z,99875.05
2018-06-04T11:20:49.243Z,99867.05
2018-06-04T11:23:18.190Z,99865.70
2018-06-04T11:25:47.221Z,99861.19
2018-06-04T11:28:16.178Z,99858.69
2018-06-04T11:30:45.156Z,99856.85
2018-06-04T11:33:14.094Z,99854.63
2018-06-04T11:35:43.147Z,99846.16
2018-06-04T11:38:12.335Z,99852.31
2018-06-04T11:40:41.346Z,99855.64
2018-06-04T11:43:10.345Z,99854.05
2018-06-04T11:45:39.331Z,99856.68
2018-06-04T11:48:09.520Z,99848.47
2018-06-04T11:50:38.578Z,99842.98
2018-06-04T11:53:07.565Z,99841.08
2018-06-04T11:55:36.556Z,99842.11
2018-06-04T11:58:05.505Z,99835.13
2018-06-04T12:00:34.517Z,99818.49
2018-06-04T12:03:03.464Z,99838.95
2018-06-04T12:05:32.537Z,99831.88
2018-06-04T12:08:01.478Z,99837.48
2018-06-04T12:10:30.484Z,99837.66
2018-06-04T12:12:59.435Z,99835.52
2018-06-04T12:15:28.533Z,99831.58
2018-06-04T12:17:57.698Z,99834.95
2018-06-04T12:20:26.746Z,99830.05
2018-06-04T12:22:55.713Z,99823.92
2018-06-04T12:25:24.715Z,99823.06
2018-06-04T12:27:53.671Z,99820.53
2018-06-04T12:30:22.622Z,99814.91
2018-06-04T12:32:51.621Z,99817.99
2018-06-04T12:35:20.563Z,99809.55
2018-06-04T12:37:49.514Z,99810.23
2018-06-04T12:40:18.483Z,99806.47
2018-06-04T12:42:47.493Z,99795.91
2018-06-04T12:45:16.439Z,99798.92
2018-06-04T12:47:45.417Z,99794.54
2018-06-04T12:50:14.367Z,99798.03
2018-06-04T12:52:46.343Z,99795.61
2018-06-04T12:55:15.318Z,99792.39
2018-06-04T12:57:44.689Z,99800.19
2018-06-04T13:00:13.836Z,99795.83
2018-06-04T13:02:42.809Z,99800.70
2018-06-04T13:05:11.756Z,99796.91
2018-06-04T13:07:40.915Z,99799.67
2018-06-04T13:10:09.863Z,99789.77
2018-06-04T13:12:38.841Z,99785.69
2018-06-04T13:15:07.795Z,99785.44
2018-06-04T13:17:36.789Z,99787.86
2018-06-04T13:20:05.860Z,99777.11
2018-06-04T13:22:34.863Z,99778.67
2018-06-04T13:25:03.898Z,99777.57
2018-06-04T13:27:32.889Z,99769.92
2018-06-04T13:30:01.897Z,99769.03
2018-06-04T13:32:30.851Z,99773.95
2018-06-04T13:34:59.786Z,99770.39
2018-06-04T13:37:28.783Z,99766.00
2018-06-04T13:39:57.730Z,99768.64
2018-06-04T13:42:26.791Z,99762.43
2018-06-04T13:44:55.738Z,99758.45
2018-06-04T13:47:25.094Z,99751.33
2018-06-04T13:49:54.209Z,99748.08
2018-06-04T13:52:23.241Z,99734.41
2018-06-04T13:54:52.182Z,99735.33
2018-06-04T13:57:21.184Z,99732.42
2018-06-04T13:59:50.162Z,99732.72
2018-06-04T14:02:19.173Z,99734.03
2018-06-04T14:04:48.110Z,99728.66
2018-06-04T14:07:17.118Z,99727.89
2018-06-04T14:09:46.073Z,99720.26
2018-06-04T14:12:15.093Z,99719.55
2018-06-04T14:14:44.061Z,99712.59
2018-06-04T14:17:13.202Z,99713.92
2018-06-04T14:19:42.133Z,99711.05
2018-06-04T14:22:11.253Z,99706.13
2018-06-04T14:24:40.399Z,99701.38
2018-06-04T14:27:09.395Z,99702.78
2018-06-04T14:29:38.432Z,99683.84
2018-06-04T14:32:07.442Z,99689.29
2018-06-04T14:34:36.415Z,99681.87
2018-06-04T14:37:05.448Z,99676.55
2018-06-04T14:39:34.383Z,99671.52
2018-06-04T14:42:03.374Z,99671.16
2018-06-04T14:44:32.394Z,99666.39
2018-06-04T14:47:01.424Z,99665.11
2018-06-04T14:49:30.423Z,99660.99
2018-06-04T14:51:59.462Z,99659.86
2018-06-04T14:54:28.452Z,99649.35
2018-06-04T14:56:57.495Z,99656.84
2018-06-04T14:59:26.452Z,99654.05
2018-06-04T15:01:55.453Z,99647.78
2018-06-04T15:04:24.456Z,99644.45
2018-06-04T15:06:53.585Z,99646.28
2018-06-04T15:09:22.657Z,99646.54
2018-06-04T15:11:51.692Z,99646.80
2018-06-04T15:14:20.642Z,99646.98
2018-06-04T15:16:49.712Z,99645.36
2018-06-04T15:19:18.708Z,99650.64
2018-06-04T15:21:47.749Z,99634.42
2018-06-04T15:24:16.710Z,99642.78
2018-06-04T15:26:45.844Z,99633.47
2018-06-04T15:29:14.829Z,99636.91
2018-06-04T15:31:43.817Z,99635.69
2018-06-04T15:34:12.941Z,99628.69
2018-06-04T15:36:42.794Z,99629.99
2018-06-04T15:39:11.943Z,99628.31
2018-06-04T15:41:40.934Z,99626.33
2018-06-04T15:44:10.005Z,99620.18
2018-06-04T15:46:39.132Z,99624.03
2018-06-04T15:49:08.926Z,99617.51
2018-06-04T15:51:38.681Z,99616.20
2018-06-04T15:54:08.451Z,99612.17
2018-06-04T15:56:38.210Z,99608.28
2018-06-04T15:59:08.356Z,99609.29
2018-06-04T16:01:38.077Z,99609.62
2018-06-04T16:04:07.849Z,99607.82
2018-06-04T16:06:37.581Z,99607.20
2018-06-04T16:09:08.697Z,99603.45
2018-06-04T16:11:38.458Z,99596.83
2018-06-04T16:14:08.233Z,99599.47
2018-06-04T16:16:37.950Z,99601.11
2018-06-04T16:19:07.659Z,99592.97
2018-06-04T16:21:37.480Z,99594.08
2018-06-04T16:24:07.295Z,99592.22
2018-06-04T16:26:37.087Z,99593.19
2018-06-04T16:29:06.864Z,99588.90
2018-06-04T16:31:36.719Z,99591.69
2018-06-04T16:34:06.566Z,99592.19
2018-06-04T16:36:36.321Z,99600.16
2018-06-04T16:39:09.268Z,99590.88
2018-06-04T16:41:39.031Z,99600.45
2018-06-04T16:44:08.808Z,99600.70
2018-06-04T16:46:38.574Z,99603.48
2018-06-04T16:49:08.365Z,99603.52
2018-06-04T16:51:38.067Z,99603.06
2018-06-04T16:54:07.852Z,99599.06
2018-06-04T16:56:37.646Z,99604.69
2018-06-04T16:59:07.610Z,99603.20
2018-06-04T17:01:37.308Z,99602.58
2018-06-04T17:04:07.643Z,99600.31
2018-06-04T17:06:37.332Z,99592.44
2018-06-04T17:09:08.836Z,99591.55
2018-06-04T17:11:38.536Z,99593.26
2018-06-04T17:14:08.397Z,99591.35
2018-06-04T17:16:38.072Z,99588.17
2018-06-04T17:19:07.892Z,99579.13
2018-06-04T17:21:37.646Z,99580.31
2018-06-04T17:24:07.440Z,99578.02
2018-06-04T17:26:37.114Z,99569.88
2018-06-04T17:29:06.980Z,99574.97
2018-06-04T17:31:36.747Z,99581.11
2018-06-04T17:34:06.472Z,99576.49
2018-06-04T17:36:36.178Z,99586.50
2018-06-04T17:39:08.414Z,99575.77
2018-06-04T17:41:38.342Z,99578.69
2018-06-04T17:44:08.096Z,99588.82
2018-06-04T17:46:37.826Z,99583.61
2018-06-04T17:49:07.648Z,99580.85
2018-06-04T17:51:37.317Z,99586.30
2018-06-04T17:54:07.095Z,99586.81
2018-06-04T17:56:36.766Z,99590.08
2018-06-04T17:59:06.844Z,99584.28
2018-06-04T18:01:36.482Z,99592.45
2018-06-04T18:04:06.352Z,99585.69
2018-06-04T18:06:36.062Z,99585.62
2018-06-04T18:09:08.907Z,99595.86
2018-06-04T18:11:38.715Z,99594.22
2018-06-04T18:14:08.461Z,99601.43
2018-06-04T18:16:38.152Z,99604.77
2018-06-04T18:19:08.035Z,99600.99
2018-06-04T18:21:36.962Z,99595.36
2018-06-04T18:24:05.958Z,99597.20
2018-06-04T18:26:34.890Z,99591.13
2018-06-04T18:29:03.921Z,99589.48
2018-06-04T18:31:32.852Z,99588.37
2018-06-04T18:34:01.823Z,99595.55
2018-06-04T18:36:30.803Z,99603.34
2018-06-04T18:38:59.792Z,99601.62
2018-06-04T18:41:28.734Z,99606.59
2018-06-04T18:43:57.742Z,99607.80
2018-06-04T18:46:28.192Z,99604.01
2018-06-04T18:48:57.197Z,99611.47
2018-06-04T18:51:26.126Z,99609.55
2018-06-04T18:53:55.106Z,99613.11
2018-06-04T18:56:24.042Z,99613.94
2018-06-04T18:58:53.017Z,99614.49
2018-06-04T19:01:21.952Z,99621.89
2018-06-04T19:03:50.931Z,99625.96
2018-06-04T19:06:19.894Z,99624.56
2018-06-04T19:08:48.910Z,99630.59
2018-06-04T19:11:18.771Z,99627.58
2018-06-04T19:13:48.585Z,99635.50
2018-06-04T19:16:18.420Z,99639.34
2018-06-04T19:18:48.221Z,99637.06
2018-06-04T19:21:17.925Z,99640.90
2018-06-04T19:23:47.685Z,99640.08
2018-06-04T19:26:17.391Z,99652.95
2018-06-04T19:28:47.337Z,99655.11
2018-06-04T19:31:17.018Z,99659.98
2018-06-04T19:33:46.757Z,99662.72
2018-06-04T19:36:15.701Z,99673.12
2018-06-04T19:38:44.677Z,99675.23
2018-06-04T19:41:13.626Z,99670.88
2018-06-04T19:43:42.634Z,99678.37
2018-06-04T19:46:11.562Z,99677.90
2018-06-04T19:48:40.526Z,99678.37
2018-06-04T19:51:09.462Z,99679.98
2018-06-04T19:53:38.439Z,99682.00
2018-06-04T19:56:07.434Z,99683.72
2018-06-04T19:58:36.411Z,99686.91
2018-06-04T20:01:05.397Z,99694.13
2018-06-04T20:03:34.364Z,99696.27
2018-06-04T20:06:03.321Z,99697.94
2018-06-04T20:08:32.263Z,99700.41
2018-06-04T20:11:01.226Z,99713.69
2018-06-04T20:13:30.194Z,99720.56
2018-06-04T20:15:59.166Z,99721.64
2018-06-04T20:18:28.094Z,99726.42
2018-06-04T20:20:57.396Z,99728.96
2018-06-04T20:23:26.309Z,99737.30
2018-06-04T20:25:56.003Z,99736.64
2018-06-04T20:28:24.917Z,99739.36
2018-06-04T20:30:53.936Z,99744.23
2018-06-04T20:33:22.880Z,99745.14
2018-06-04T20:35:51.851Z,99743.28
2018-06-04T20:38:20.883Z,99747.73
2018-06-04T20:40:49.853Z,99742.72
2018-06-04T20:43:18.769Z,99754.42
2018-06-04T20:45:48.561Z,99749.68
2018-06-04T20:48:18.271Z,99755.61
2018-06-04T20:50:47.983Z,99761.13
2018-06-04T20:53:17.652Z,99761.52
2018-06-04T20:55:47.380Z,99755.27
2018-06-04T20:58:18.071Z,99754.85
2018-06-04T21:00:47.055Z,99757.50
2018-06-04T21:03:16.012Z,99752.12
2018-06-04T21:05:45.425Z,99761.12
2018-06-04T21:08:14.394Z,99758.95
2018-06-04T21:10:43.956Z,99747.56
2018-06-04T21:13:12.997Z,99746.66
2018-06-04T21:15:41.988Z,99746.98
2018-06-04T21:18:11.155Z,99743.77
2018-06-04T21:20:40.464Z,99743.39
2018-06-04T21:23:09.524Z,99743.43
2018-06-04T21:25:38.582Z,99738.77
2018-06-04T21:28:07.588Z,99736.46
2018-06-04T21:30:36.582Z,99733.59
2018-06-04T21:33:05.534Z,99732.00
2018-06-04T21:35:34.501Z,99729.88
2018-06-04T21:38:03.445Z,99729.71
2018-06-04T21:40:32.441Z,99732.05
2018-06-04T21:43:01.382Z,99738.31
2018-06-04T21:45:30.375Z,99731.91
2018-06-04T21:47:59.353Z,99730.80
2018-06-04T21:50:28.371Z,99726.80
2018-06-04T21:52:57.338Z,99732.81
2018-06-04T21:55:26.367Z,99734.22
2018-06-04T21:57:55.338Z,99735.30
2018-06-04T22:00:24.322Z,99735.49
2018-06-04T22:02:53.253Z,99747.34
2018-06-04T22:05:22.253Z,99745.16
2018-06-04T22:07:51.215Z,99748.83
2018-06-04T22:10:20.222Z,99754.70
2018-06-04T22:12:49.154Z,99748.92
2018-06-04T22:15:18.177Z,99757.00
2018-06-04T22:17:47.132Z,99752.55
2018-06-04T22:20:16.106Z,99753.50
2018-06-04T22:22:45.067Z,99756.03
2018-06-04T22:25:14.096Z,99757.00
2018-06-04T22:27:43.094Z,99754.12
2018-06-04T22:30:12.061Z,99751.23
2018-06-04T22:32:40.998Z,99752.80
2018-06-04T22:35:09.971Z,99748.13
2018-06-04T22:37:38.924Z,99755.52
2018-06-04T22:40:07.915Z,99747.66
2018-06-04T22:42:36.888Z,99752.21
2018-06-04T22:45:05.866Z,99757.51
2018-06-04T22:47:34.790Z,99751.53
2018-06-04T22:50:03.780Z,99756.11
2018-06-04T22:52:32.717Z,99756.41
2018-06-04T22:55:01.695Z,99757.96
2018-06-04T22:57:30.624Z,99759.91
2018-06-04T22:59:59.643Z,99768.56
2018-06-04T23:02:28.594Z,99765.14
2018-06-04T23:04:57.535Z,99762.19
2018-06-04T23:07:26.525Z,99758.47
2018-06-04T23:09:55.562Z,99755.75
2018-06-04T23:12:24.537Z,99758.66
2018-06-04T23:14:53.466Z,99765.77
2018-06-04T23:17:22.462Z,99768.69
2018-06-04T23:19:51.390Z,99773.64
2018-06-04T23:22:20.353Z,99769.47
2018-06-04T23:24:49.311Z,99765.27
2018-06-04T23:27:18.292Z,99765.02
2018-06-04T23:29:47.263Z,99769.41
2018-06-04T23:32:16.265Z,99770.52
2018-06-04T23:34:45.203Z,99768.03
2018-06-04T23:37:14.163Z,99762.16
2018-06-04T23:39:43.093Z,99761.04
2018-06-04T23:42:12.086Z,99755.61
2018-06-04T23:44:41.020Z,99755.06
2018-06-04T23:47:10.017Z,99754.24
2018-06-04T23:49:38.974Z,99756.84
2018-06-04T23:52:07.975Z,99761.69
2018-06-04T23:54:36.902Z,99756.96
2018-06-04T23:57:05.909Z,99752.64
2018-06-04T23:59:34.821Z,99750.04
